MMTJ/TIJ METAR and TAF weather

Enter ICAO airport designator
Station Type Date Time Source
MMTJ METAR 2020/06/03 22:40 UTC NOAA

MMTJ 032240Z 32014KT 7SM SKC 26/15 A2990 RMK HZY CU 1ST QUAD


Station Type Date Time Source
MMTJ Decoded METAR 2020/06/03 22:40 UTC NOAA

Tijuana International Airport , Mexico (MMTJ) 32-33N 116-58W
Jun 03, 2020 - 06:40 PM EDT / 2020.06.03 2240 UTC
Wind: from the NW (320 degrees) at 16 MPH (14 KT):0
Visibility: 7 mile(s):0
Sky conditions: clear
Temperature: 78 F (26 C)
Dew Point: 59 F (15 C)
Relative Humidity: 50%
Pressure (altimeter): 29.9 in. Hg (1012 hPa)
ob: MMTJ 032240Z 32014KT 7SM SKC 26/15 A2990 RMK HZY CU 1ST QUAD
cycle: 22

Station Type Date Time Source
MMTJ TAF 2020/06/03 18:22 UTC NOAA

TAF MMTJ 031616Z 0318/0424 00000KT 5SM HZ SCT100 TX26/0322Z TN16/0413Z
FM040900 00000KT 5SM HZ OVC010
TEMPO 0413/0417 2SM BR OVC006
FM042000 24012KT P6SM SCT030

Example: see airport list